sensor_id;sensor_type;location;lat;lon;timestamp;pressure;altitude;pressure_sealevel;temperature;humidity
43745;BME280;29359;53.048;8.732;2023-09-12T00:01:03;101299.13;;;21.73;86.53
43745;BME280;29359;53.048;8.732;2023-09-12T00:03:06;101283.94;;;21.72;85.25
43745;BME280;29359;53.048;8.732;2023-09-12T00:05:08;101282.13;;;21.73;84.80
43745;BME280;29359;53.048;8.732;2023-09-12T00:07:10;101276.84;;;21.71;85.23
43745;BME280;29359;53.048;8.732;2023-09-12T00:09:12;101256.22;;;21.72;84.27
43745;BME280;29359;53.048;8.732;2023-09-12T00:11:14;101234.81;;;21.70;84.04
43745;BME280;29359;53.048;8.732;2023-09-12T00:13:16;101211.59;;;21.69;83.18
43745;BME280;29359;53.048;8.732;2023-09-12T00:15:17;101188.28;;;21.70;82.11
43745;BME280;29359;53.048;8.732;2023-09-12T00:17:21;101191.16;;;21.67;82.62
43745;BME280;29359;53.048;8.732;2023-09-12T00:19:23;101185.00;;;21.64;83.27
43745;BME280;29359;53.048;8.732;2023-09-12T00:21:25;101193.28;;;21.61;83.74
43745;BME280;29359;53.048;8.732;2023-09-12T00:23:27;101201.56;;;21.58;85.13
43745;BME280;29359;53.048;8.732;2023-09-12T00:25:28;101211.66;;;21.55;86.75
43745;BME280;29359;53.048;8.732;2023-09-12T00:27:30;101221.84;;;21.50;90.85
43745;BME280;29359;53.048;8.732;2023-09-12T00:29:32;101219.38;;;21.47;90.64
43745;BME280;29359;53.048;8.732;2023-09-12T00:31:34;101214.97;;;21.46;90.11
43745;BME280;29359;53.048;8.732;2023-09-12T00:33:36;101216.91;;;21.44;92.10
43745;BME280;29359;53.048;8.732;2023-09-12T00:35:38;101220.88;;;21.38;92.13
43745;BME280;29359;53.048;8.732;2023-09-12T00:37:40;101219.16;;;21.37;92.06
43745;BME280;29359;53.048;8.732;2023-09-12T00:39:42;101220.75;;;21.40;91.72
43745;BME280;29359;53.048;8.732;2023-09-12T00:41:43;101226.25;;;21.38;92.51
43745;BME280;29359;53.048;8.732;2023-09-12T00:43:45;101244.28;;;21.36;95.09
43745;BME280;29359;53.048;8.732;2023-09-12T00:45:47;101269.63;;;21.32;97.82
43745;BME280;29359;53.048;8.732;2023-09-12T00:47:49;101289.84;;;21.23;100.00
43745;BME280;29359;53.048;8.732;2023-09-12T00:49:53;101287.84;;;21.13;100.00
43745;BME280;29359;53.048;8.732;2023-09-12T00:51:58;101291.03;;;21.05;100.00
43745;BME280;29359;53.048;8.732;2023-09-12T00:54:01;101295.63;;;21.03;100.00
43745;BME280;29359;53.048;8.732;2023-09-12T00:56:03;101299.09;;;21.05;100.00
43745;BME280;29359;53.048;8.732;2023-09-12T00:58:05;101322.28;;;21.06;100.00
43745;BME280;29359;53.048;8.732;2023-09-12T01:00:07;101334.94;;;21.04;100.00
43745;BME280;29359;53.048;8.732;2023-09-12T01:02:12;101338.78;;;21.00;100.00
43745;BME280;29359;53.048;8.732;2023-09-12T01:04:15;101337.06;;;20.99;100.00
43745;BME280;29359;53.048;8.732;2023-09-12T01:06:34;101345.22;;;20.97;100.00
43745;BME280;29359;53.048;8.732;2023-09-12T01:08:36;101346.94;;;20.98;100.00
43745;BME280;29359;53.048;8.732;2023-09-12T01:10:40;101345.97;;;20.99;100.00
43745;BME280;29359;53.048;8.732;2023-09-12T01:12:46;101348.38;;;21.04;100.00
43745;BME280;29359;53.048;8.732;2023-09-12T01:14:48;101339.25;;;21.07;100.00
43745;BME280;29359;53.048;8.732;2023-09-12T01:16:50;101331.88;;;21.10;100.00
43745;BME280;29359;53.048;8.732;2023-09-12T01:18:52;101330.03;;;21.11;100.00
43745;BME280;29359;53.048;8.732;2023-09-12T01:26:24;101332.72;;;21.11;100.00
43745;BME280;29359;53.048;8.732;2023-09-12T01:28:30;101330.03;;;21.11;100.00
43745;BME280;29359;53.048;8.732;2023-09-12T01:30:34;101332.81;;;21.09;100.00
43745;BME280;29359;53.048;8.732;2023-09-12T01:32:37;101347.22;;;21.08;100.00
43745;BME280;29359;53.048;8.732;2023-09-12T01:34:40;101356.31;;;21.06;100.00
43745;BME280;29359;53.048;8.732;2023-09-12T01:36:42;101359.00;;;21.06;100.00
43745;BME280;29359;53.048;8.732;2023-09-12T01:38:43;101361.69;;;21.06;100.00
43745;BME280;29359;53.048;8.732;2023-09-12T01:40:52;101351.72;;;21.08;100.00
43745;BME280;29359;53.048;8.732;2023-09-12T01:43:21;101349.78;;;21.10;100.00
43745;BME280;29359;53.048;8.732;2023-09-12T01:52:47;101307.34;;;21.02;100.00
43745;BME280;29359;53.048;8.732;2023-09-12T01:55:23;101307.25;;;21.04;100.00
43745;BME280;29359;53.048;8.732;2023-09-12T01:57:32;101302.53;;;21.07;100.00
43745;BME280;29359;53.048;8.732;2023-09-12T01:59:34;101288.16;;;21.08;100.00
43745;BME280;29359;53.048;8.732;2023-09-12T02:01:36;101256.13;;;21.05;100.00
43745;BME280;29359;53.048;8.732;2023-09-12T02:03:38;101263.88;;;21.10;97.74
43745;BME280;29359;53.048;8.732;2023-09-12T02:05:40;101261.09;;;21.11;97.55
43745;BME280;29359;53.048;8.732;2023-09-12T02:07:42;101263.78;;;21.11;98.24
43745;BME280;29359;53.048;8.732;2023-09-12T02:09:43;101269.91;;;21.13;99.10
43745;BME280;29359;53.048;8.732;2023-09-12T02:11:46;101290.63;;;21.11;99.87
43745;BME280;29359;53.048;8.732;2023-09-12T02:13:48;101280.00;;;21.10;99.87
43745;BME280;29359;53.048;8.732;2023-09-12T02:15:49;101303.19;;;21.11;100.00
43745;BME280;29359;53.048;8.732;2023-09-12T02:17:51;101319.50;;;21.08;100.00
43745;BME280;29359;53.048;8.732;2023-09-12T02:19:53;101338.78;;;21.00;100.00
43745;BME280;29359;53.048;8.732;2023-09-12T02:21:55;101339.94;;;20.96;100.00
43745;BME280;29359;53.048;8.732;2023-09-12T02:23:57;101344.44;;;20.95;100.00
43745;BME280;29359;53.048;8.732;2023-09-12T02:25:58;101340.81;;;20.96;100.00
43745;BME280;29359;53.048;8.732;2023-09-12T02:28:00;101338.97;;;20.97;100.00
43745;BME280;29359;53.048;8.732;2023-09-12T02:30:03;101329.09;;;20.97;100.00
43745;BME280;29359;53.048;8.732;2023-09-12T02:32:05;101328.16;;;20.98;100.00
43745;BME280;29359;53.048;8.732;2023-09-12T02:34:07;101320.84;;;21.00;100.00
43745;BME280;29359;53.048;8.732;2023-09-12T02:36:09;101312.81;;;21.00;100.00
43745;BME280;29359;53.048;8.732;2023-09-12T02:38:11;101308.31;;;21.01;100.00
43745;BME280;29359;53.048;8.732;2023-09-12T02:40:12;101306.47;;;21.01;100.00
43745;BME280;29359;53.048;8.732;2023-09-12T02:42:16;101314.34;;;21.05;100.00
43745;BME280;29359;53.048;8.732;2023-09-12T02:44:18;101311.84;;;21.01;100.00
43745;BME280;29359;53.048;8.732;2023-09-12T02:46:19;101332.84;;;20.95;100.00
43745;BME280;29359;53.048;8.732;2023-09-12T02:48:21;101360.00;;;20.90;100.00
43745;BME280;29359;53.048;8.732;2023-09-12T02:50:23;101370.81;;;20.89;100.00
43745;BME280;29359;53.048;8.732;2023-09-12T02:52:25;101363.63;;;20.89;100.00
43745;BME280;29359;53.048;8.732;2023-09-12T02:54:27;101360.94;;;20.89;100.00
43745;BME280;29359;53.048;8.732;2023-09-12T02:56:29;101352.03;;;20.89;100.00
43745;BME280;29359;53.048;8.732;2023-09-12T02:58:32;101334.31;;;20.86;100.00
43745;BME280;29359;53.048;8.732;2023-09-12T03:00:38;101331.81;;;20.83;100.00
43745;BME280;29359;53.048;8.732;2023-09-12T03:02:41;101329.13;;;20.83;100.00
43745;BME280;29359;53.048;8.732;2023-09-12T03:04:43;101331.81;;;20.83;100.00
43745;BME280;29359;53.048;8.732;2023-09-12T03:06:45;101331.06;;;20.81;100.00
43745;BME280;29359;53.048;8.732;2023-09-12T03:08:50;101317.63;;;20.81;100.00
43745;BME280;29359;53.048;8.732;2023-09-12T03:10:55;101323.75;;;20.83;100.00
43745;BME280;29359;53.048;8.732;2023-09-12T03:12:57;101326.59;;;20.80;100.00
43745;BME280;29359;53.048;8.732;2023-09-12T03:14:59;101326.81;;;20.77;100.00
43745;BME280;29359;53.048;8.732;2023-09-12T03:17:02;101333.13;;;20.76;100.00
43745;BME280;29359;53.048;8.732;2023-09-12T03:19:05;101328.72;;;20.75;100.00
43745;BME280;29359;53.048;8.732;2023-09-12T03:21:07;101319.72;;;20.76;100.00
43745;BME280;29359;53.048;8.732;2023-09-12T03:23:08;101315.22;;;20.77;100.00
43745;BME280;29359;53.048;8.732;2023-09-12T03:25:10;101304.47;;;20.77;100.00
43745;BME280;29359;53.048;8.732;2023-09-12T03:27:12;101298.25;;;20.76;100.00
43745;BME280;29359;53.048;8.732;2023-09-12T03:29:14;101306.28;;;20.76;100.00
43745;BME280;29359;53.048;8.732;2023-09-12T03:31:15;101291.06;;;20.77;100.00
43745;BME280;29359;53.048;8.732;2023-09-12T03:33:17;101282.16;;;20.76;100.00
43745;BME280;29359;53.048;8.732;2023-09-12T03:35:19;101279.47;;;20.76;100.00
43745;BME280;29359;53.048;8.732;2023-09-12T03:37:21;101284.63;;;20.79;100.00
43745;BME280;29359;53.048;8.732;2023-09-12T03:39:23;101266.72;;;20.80;100.00
43745;BME280;29359;53.048;8.732;2023-09-12T03:41:25;101255.13;;;20.79;100.00
43745;BME280;29359;53.048;8.732;2023-09-12T03:43:27;101253.22;;;20.81;100.00
43745;BME280;29359;53.048;8.732;2023-09-12T03:45:29;101263.84;;;20.83;100.00
43745;BME280;29359;53.048;8.732;2023-09-12T03:47:31;101246.91;;;20.82;100.00
43745;BME280;29359;53.048;8.732;2023-09-12T03:49:33;101227.31;;;20.80;98.56
43745;BME280;29359;53.048;8.732;2023-09-12T03:51:34;101220.22;;;20.79;91.50
43745;BME280;29359;53.048;8.732;2023-09-12T03:53:36;101204.91;;;20.81;86.14
43745;BME280;29359;53.048;8.732;2023-09-12T03:55:38;101212.00;;;20.82;86.30
43745;BME280;29359;53.048;8.732;2023-09-12T03:57:40;101203.09;;;20.82;85.97
43745;BME280;29359;53.048;8.732;2023-09-12T03:59:42;101187.00;;;20.82;85.27
43745;BME280;29359;53.048;8.732;2023-09-12T04:01:44;101196.78;;;20.83;85.44
43745;BME280;29359;53.048;8.732;2023-09-12T04:03:46;101197.72;;;20.82;87.45
43745;BME280;29359;53.048;8.732;2023-09-12T04:05:50;101194.19;;;20.81;88.54
43745;BME280;29359;53.048;8.732;2023-09-12T04:07:52;101210.28;;;20.81;87.95
43745;BME280;29359;53.048;8.732;2023-09-12T04:09:54;101243.41;;;20.80;94.14
43745;BME280;29359;53.048;8.732;2023-09-12T04:11:56;101262.41;;;20.77;99.14
43745;BME280;29359;53.048;8.732;2023-09-12T04:13:57;101271.59;;;20.73;100.00
43745;BME280;29359;53.048;8.732;2023-09-12T04:15:59;101276.13;;;20.73;100.00
43745;BME280;29359;53.048;8.732;2023-09-12T04:18:01;101292.22;;;20.73;100.00
43745;BME280;29359;53.048;8.732;2023-09-12T04:20:03;101290.50;;;20.72;100.00
43745;BME280;29359;53.048;8.732;2023-09-12T04:22:08;101294.78;;;20.74;100.00
43745;BME280;29359;53.048;8.732;2023-09-12T04:24:10;101293.84;;;20.75;100.00
43745;BME280;29359;53.048;8.732;2023-09-12T04:26:12;101300.06;;;20.76;100.00
43745;BME280;29359;53.048;8.732;2023-09-12T04:28:14;101300.06;;;20.76;100.00
43745;BME280;29359;53.048;8.732;2023-09-12T04:30:16;101301.78;;;20.77;100.00
43745;BME280;29359;53.048;8.732;2023-09-12T04:32:20;101296.53;;;20.75;100.00
43745;BME280;29359;53.048;8.732;2023-09-12T04:34:25;101290.19;;;20.76;100.00
43745;BME280;29359;53.048;8.732;2023-09-12T04:36:27;101290.09;;;20.78;100.00
43745;BME280;29359;53.048;8.732;2023-09-12T04:38:29;101284.63;;;20.79;100.00
43745;BME280;29359;53.048;8.732;2023-09-12T04:40:31;101281.94;;;20.79;100.00
43745;BME280;29359;53.048;8.732;2023-09-12T04:42:33;101275.72;;;20.79;100.00
43745;BME280;29359;53.048;8.732;2023-09-12T04:44:36;101278.50;;;20.77;100.00
43745;BME280;29359;53.048;8.732;2023-09-12T04:46:37;101279.38;;;20.78;100.00
43745;BME280;29359;53.048;8.732;2023-09-12T04:48:42;101274.84;;;20.78;100.00
43745;BME280;29359;53.048;8.732;2023-09-12T04:50:45;101274.84;;;20.78;100.00
43745;BME280;29359;53.048;8.732;2023-09-12T04:53:03;101279.47;;;20.76;100.00
43745;BME280;29359;53.048;8.732;2023-09-12T04:55:52;101285.97;;;20.72;100.00
43745;BME280;29359;53.048;8.732;2023-09-12T04:57:54;101292.41;;;20.69;100.00
43745;BME280;29359;53.048;8.732;2023-09-12T04:59:57;101303.13;;;20.69;100.00
43745;BME280;29359;53.048;8.732;2023-09-12T05:01:59;101305.91;;;20.68;100.00
43745;BME280;29359;53.048;8.732;2023-09-12T05:04:01;101313.19;;;20.66;100.00
43745;BME280;29359;53.048;8.732;2023-09-12T05:06:04;101315.97;;;20.64;100.00
43745;BME280;29359;53.048;8.732;2023-09-12T05:08:06;101310.53;;;20.66;100.00
43745;BME280;29359;53.048;8.732;2023-09-12T05:10:11;101310.53;;;20.66;100.00
43745;BME280;29359;53.048;8.732;2023-09-12T05:12:12;101317.50;;;20.68;100.00
43745;BME280;29359;53.048;8.732;2023-09-12T05:14:15;101304.97;;;20.69;100.00
43745;BME280;29359;53.048;8.732;2023-09-12T05:16:17;101314.94;;;20.67;100.00
43745;BME280;29359;53.048;8.732;2023-09-12T05:18:19;101310.63;;;20.64;100.00
43745;BME280;29359;53.048;8.732;2023-09-12T05:20:21;101308.91;;;20.63;100.00
43745;BME280;29359;53.048;8.732;2023-09-12T05:22:23;101309.75;;;20.64;100.00
43745;BME280;29359;53.048;8.732;2023-09-12T05:24:25;101299.97;;;20.63;100.00
43745;BME280;29359;53.048;8.732;2023-09-12T05:26:27;101304.38;;;20.64;100.00
43745;BME280;29359;53.048;8.732;2023-09-12T05:28:28;101307.16;;;20.62;100.00
43745;BME280;29359;53.048;8.732;2023-09-12T05:30:30;101301.91;;;20.61;100.00
43745;BME280;29359;53.048;8.732;2023-09-12T05:32:48;101302.84;;;20.60;100.00
43745;BME280;29359;53.048;8.732;2023-09-12T05:34:50;101303.06;;;20.57;100.00
43745;BME280;29359;53.048;8.732;2023-09-12T05:37:00;101295.00;;;20.57;100.00
43745;BME280;29359;53.048;8.732;2023-09-12T05:39:02;101297.69;;;20.57;100.00
43745;BME280;29359;53.048;8.732;2023-09-12T05:41:06;101298.53;;;20.57;100.00
43745;BME280;29359;53.048;8.732;2023-09-12T05:43:08;101307.56;;;20.56;100.00
43745;BME280;29359;53.048;8.732;2023-09-12T05:45:10;101299.50;;;20.56;100.00
43745;BME280;29359;53.048;8.732;2023-09-12T05:47:12;101302.19;;;20.56;100.00
43745;BME280;29359;53.048;8.732;2023-09-12T05:49:14;101308.41;;;20.57;100.00
43745;BME280;29359;53.048;8.732;2023-09-12T05:51:16;101313.78;;;20.57;100.00
43745;BME280;29359;53.048;8.732;2023-09-12T05:53:18;101308.50;;;20.55;100.00
43745;BME280;29359;53.048;8.732;2023-09-12T05:55:20;101312.06;;;20.56;100.00
43745;BME280;29359;53.048;8.732;2023-09-12T05:57:21;101314.75;;;20.56;100.00
43745;BME280;29359;53.048;8.732;2023-09-12T05:59:23;101317.41;;;20.56;100.00
43745;BME280;29359;53.048;8.732;2023-09-12T06:01:25;101317.53;;;20.54;100.00
43745;BME280;29359;53.048;8.732;2023-09-12T06:03:40;101313.00;;;20.55;100.00
43745;BME280;29359;53.048;8.732;2023-09-12T06:05:42;101329.00;;;20.56;100.00
43745;BME280;29359;53.048;8.732;2023-09-12T06:07:44;101326.44;;;20.55;100.00
43745;BME280;29359;53.048;8.732;2023-09-12T06:09:46;101330.16;;;20.52;100.00
43745;BME280;29359;53.048;8.732;2023-09-12T06:11:48;101326.63;;;20.52;100.00
43745;BME280;29359;53.048;8.732;2023-09-12T06:13:50;101329.31;;;20.52;100.00
43745;BME280;29359;53.048;8.732;2023-09-12T06:15:52;101330.06;;;20.54;100.00
43745;BME280;29359;53.048;8.732;2023-09-12T06:17:54;101319.34;;;20.54;100.00
43745;BME280;29359;53.048;8.732;2023-09-12T06:19:57;101317.41;;;20.56;100.00
43745;BME280;29359;53.048;8.732;2023-09-12T06:21:58;101318.19;;;20.58;100.00
43745;BME280;29359;53.048;8.732;2023-09-12T06:24:18;101314.44;;;20.60;100.00
43745;BME280;29359;53.048;8.732;2023-09-12T06:26:20;101316.19;;;20.61;100.00
43745;BME280;29359;53.048;8.732;2023-09-12T06:28:30;101316.94;;;20.63;100.00
43745;BME280;29359;53.048;8.732;2023-09-12T06:30:32;101319.63;;;20.63;100.00
43745;BME280;29359;53.048;8.732;2023-09-12T06:32:34;101323.16;;;20.64;100.00
43745;BME280;29359;53.048;8.732;2023-09-12T06:34:36;101321.34;;;20.64;100.00
43745;BME280;29359;53.048;8.732;2023-09-12T06:36:38;101317.72;;;20.65;100.00
43745;BME280;29359;53.048;8.732;2023-09-12T06:38:40;101313.19;;;20.66;100.00
43745;BME280;29359;53.048;8.732;2023-09-12T06:40:43;101313.19;;;20.66;100.00
43745;BME280;29359;53.048;8.732;2023-09-12T06:42:45;101319.44;;;20.66;100.00
43745;BME280;29359;53.048;8.732;2023-09-12T06:44:46;101313.09;;;20.67;100.00
43745;BME280;29359;53.048;8.732;2023-09-12T06:46:48;101312.16;;;20.68;100.00
43745;BME280;29359;53.048;8.732;2023-09-12T06:48:50;101297.78;;;20.69;100.00
43745;BME280;29359;53.048;8.732;2023-09-12T06:50:54;101299.41;;;20.72;100.00
43745;BME280;29359;53.048;8.732;2023-09-12T06:52:56;101299.31;;;20.74;100.00
43745;BME280;29359;53.048;8.732;2023-09-12T06:54:58;101306.19;;;20.78;100.00
43745;BME280;29359;53.048;8.732;2023-09-12T06:56:59;101312.44;;;20.78;100.00
43745;BME280;29359;53.048;8.732;2023-09-12T06:59:01;101307.81;;;20.80;100.00
43745;BME280;29359;53.048;8.732;2023-09-12T07:01:05;101314.75;;;20.84;100.00
43745;BME280;29359;53.048;8.732;2023-09-12T07:03:07;101311.09;;;20.85;100.00
43745;BME280;29359;53.048;8.732;2023-09-12T07:05:09;101314.47;;;20.89;100.00
43745;BME280;29359;53.048;8.732;2023-09-12T07:07:11;101306.22;;;20.92;100.00
43745;BME280;29359;53.048;8.732;2023-09-12T07:09:13;101314.16;;;20.93;100.00
43745;BME280;29359;53.048;8.732;2023-09-12T07:11:16;101320.09;;;20.98;100.00
43745;BME280;29359;53.048;8.732;2023-09-12T07:13:18;101312.81;;;21.00;100.00
43745;BME280;29359;53.048;8.732;2023-09-12T07:15:20;101312.72;;;21.02;100.00
43745;BME280;29359;53.048;8.732;2023-09-12T07:17:22;101311.94;;;21.00;100.00
43745;BME280;29359;53.048;8.732;2023-09-12T07:19:23;101321.81;;;20.99;100.00
43745;BME280;29359;53.048;8.732;2023-09-12T07:21:25;101320.28;;;20.95;100.00
43745;BME280;29359;53.048;8.732;2023-09-12T07:23:30;101320.28;;;20.95;100.00
43745;BME280;29359;53.048;8.732;2023-09-12T07:26:17;101323.75;;;20.97;100.00
43745;BME280;29359;53.048;8.732;2023-09-12T07:28:58;101327.38;;;20.96;100.00
43745;BME280;29359;53.048;8.732;2023-09-12T07:31:03;101337.16;;;20.97;100.00
43745;BME280;29359;53.048;8.732;2023-09-12T07:33:05;101332.75;;;20.96;100.00
43745;BME280;29359;53.048;8.732;2023-09-12T07:35:07;101344.25;;;20.98;100.00
43745;BME280;29359;53.048;8.732;2023-09-12T07:37:09;101339.75;;;20.99;100.00
43745;BME280;29359;53.048;8.732;2023-09-12T07:39:11;101342.25;;;21.02;100.00
43745;BME280;29359;53.048;8.732;2023-09-12T07:41:13;101346.66;;;21.03;100.00
43745;BME280;29359;53.048;8.732;2023-09-12T07:43:14;101343.97;;;21.03;100.00
43745;BME280;29359;53.048;8.732;2023-09-12T07:45:16;101340.50;;;21.01;100.00
43745;BME280;29359;53.048;8.732;2023-09-12T07:47:19;101346.75;;;21.01;100.00
43745;BME280;29359;53.048;8.732;2023-09-12T07:49:21;101360.94;;;21.04;100.00
43745;BME280;29359;53.048;8.732;2023-09-12T07:51:22;101362.66;;;21.05;100.00
43745;BME280;29359;53.048;8.732;2023-09-12T07:53:24;101365.16;;;21.08;100.00
43745;BME280;29359;53.048;8.732;2023-09-12T07:55:26;101365.91;;;21.10;100.00
43745;BME280;29359;53.048;8.732;2023-09-12T07:57:32;101354.41;;;21.08;100.00
43745;BME280;29359;53.048;8.732;2023-09-12T07:59:35;101359.56;;;21.11;100.00
43745;BME280;29359;53.048;8.732;2023-09-12T08:01:37;101364.00;;;21.12;100.00
43745;BME280;29359;53.048;8.732;2023-09-12T08:03:39;101356.88;;;21.11;100.00
43745;BME280;29359;53.048;8.732;2023-09-12T08:05:42;101359.56;;;21.11;100.00
43745;BME280;29359;53.048;8.732;2023-09-12T08:07:44;101369.34;;;21.12;100.00
43745;BME280;29359;53.048;8.732;2023-09-12T08:09:51;101368.28;;;21.14;100.00
43745;BME280;29359;53.048;8.732;2023-09-12T08:11:53;101371.75;;;21.16;100.00
43745;BME280;29359;53.048;8.732;2023-09-12T08:13:55;101386.13;;;21.15;100.00
43745;BME280;29359;53.048;8.732;2023-09-12T08:15:58;101376.44;;;21.13;100.00
43745;BME280;29359;53.048;8.732;2023-09-12T08:18:01;101375.69;;;21.11;100.00
43745;BME280;29359;53.048;8.732;2023-09-12T08:20:03;101376.84;;;21.07;100.00
43745;BME280;29359;53.048;8.732;2023-09-12T08:22:05;101382.22;;;21.07;100.00
43745;BME280;29359;53.048;8.732;2023-09-12T08:24:08;101382.13;;;21.08;100.00
43745;BME280;29359;53.048;8.732;2023-09-12T08:26:10;101388.34;;;21.09;100.00
43745;BME280;29359;53.048;8.732;2023-09-12T08:28:12;101384.59;;;21.11;100.00
43745;BME280;29359;53.048;8.732;2023-09-12T08:30:16;101385.28;;;21.15;100.00
43745;BME280;29359;53.048;8.732;2023-09-12T08:32:18;101395.91;;;21.16;100.00
43745;BME280;29359;53.048;8.732;2023-09-12T08:34:20;101390.44;;;21.18;100.00
43745;BME280;29359;53.048;8.732;2023-09-12T08:36:22;101387.00;;;21.16;100.00
43745;BME280;29359;53.048;8.732;2023-09-12T08:38:24;101392.47;;;21.14;100.00
43745;BME280;29359;53.048;8.732;2023-09-12T08:40:26;101395.16;;;21.14;100.00
43745;BME280;29359;53.048;8.732;2023-09-12T08:42:29;101389.13;;;21.11;100.00
43745;BME280;29359;53.048;8.732;2023-09-12T08:44:32;101397.34;;;21.08;100.00
43745;BME280;29359;53.048;8.732;2023-09-12T08:46:34;101398.31;;;21.07;100.00
43745;BME280;29359;53.048;8.732;2023-09-12T08:48:37;101408.00;;;21.09;100.00
43745;BME280;29359;53.048;8.732;2023-09-12T08:50:40;101399.84;;;21.11;100.00
43745;BME280;29359;53.048;8.732;2023-09-12T08:52:44;101398.88;;;21.12;100.00
43745;BME280;29359;53.048;8.732;2023-09-12T08:55:06;101390.06;;;21.10;100.00
43745;BME280;29359;53.048;8.732;2023-09-12T08:57:08;101393.41;;;21.13;100.00
43745;BME280;29359;53.048;8.732;2023-09-12T08:59:12;101397.72;;;21.16;100.00
43745;BME280;29359;53.048;8.732;2023-09-12T09:01:15;101403.66;;;21.21;100.00
43745;BME280;29359;53.048;8.732;2023-09-12T09:03:20;101398.19;;;21.22;100.00
43745;BME280;29359;53.048;8.732;2023-09-12T09:05:24;101408.88;;;21.24;100.00
43745;BME280;29359;53.048;8.732;2023-09-12T09:07:27;101407.22;;;21.21;100.00
43745;BME280;29359;53.048;8.732;2023-09-12T09:09:30;101409.13;;;21.19;100.00
43745;BME280;29359;53.048;8.732;2023-09-12T09:11:32;101419.22;;;21.16;100.00
43745;BME280;29359;53.048;8.732;2023-09-12T09:13:36;101421.34;;;21.11;100.00
43745;BME280;29359;53.048;8.732;2023-09-12T09:15:38;101431.31;;;21.09;100.00
43745;BME280;29359;53.048;8.732;2023-09-12T09:17:43;101442.13;;;21.07;100.00
43745;BME280;29359;53.048;8.732;2023-09-12T09:19:47;101431.69;;;21.02;100.00
43745;BME280;29359;53.048;8.732;2023-09-12T09:21:49;101436.38;;;20.99;100.00
43745;BME280;29359;53.048;8.732;2023-09-12T09:23:53;101436.38;;;20.99;100.00
43745;BME280;29359;53.048;8.732;2023-09-12T09:25:55;101440.03;;;20.98;100.00
43745;BME280;29359;53.048;8.732;2023-09-12T09:27:57;101443.56;;;20.98;100.00
43745;BME280;29359;53.048;8.732;2023-09-12T09:29:59;101443.56;;;20.98;100.00
43745;BME280;29359;53.048;8.732;2023-09-12T09:32:01;101456.31;;;20.95;100.00
43745;BME280;29359;53.048;8.732;2023-09-12T09:34:03;101463.72;;;20.91;100.00
43745;BME280;29359;53.048;8.732;2023-09-12T09:36:06;101462.94;;;20.89;100.00
43745;BME280;29359;53.048;8.732;2023-09-12T09:38:09;101463.91;;;20.88;100.00
43745;BME280;29359;53.048;8.732;2023-09-12T09:40:11;101470.31;;;20.86;100.00
43745;BME280;29359;53.048;8.732;2023-09-12T09:42:13;101467.72;;;20.84;100.00
43745;BME280;29359;53.048;8.732;2023-09-12T09:44:15;101474.06;;;20.83;100.00
43745;BME280;29359;53.048;8.732;2023-09-12T09:46:18;101471.38;;;20.83;100.00
43745;BME280;29359;53.048;8.732;2023-09-12T09:48:22;101472.38;;;20.81;100.00
43745;BME280;29359;53.048;8.732;2023-09-12T09:50:24;101474.22;;;20.80;100.00
43745;BME280;29359;53.048;8.732;2023-09-12T09:52:26;101479.50;;;20.82;100.00
43745;BME280;29359;53.048;8.732;2023-09-12T09:54:29;101479.41;;;20.83;100.00
43745;BME280;29359;53.048;8.732;2023-09-12T09:56:31;101471.38;;;20.83;100.00
43745;BME280;29359;53.048;8.732;2023-09-12T09:58:33;101472.31;;;20.82;100.00
43745;BME280;29359;53.048;8.732;2023-09-12T10:00:37;101466.88;;;20.84;100.00
43745;BME280;29359;53.048;8.732;2023-09-12T10:02:54;101459.59;;;20.86;100.00
43745;BME280;29359;53.048;8.732;2023-09-12T10:05:48;101464.09;;;20.85;100.00
43745;BME280;29359;53.048;8.732;2023-09-12T10:07:59;101463.72;;;20.91;100.00
43745;BME280;29359;53.048;8.732;2023-09-12T10:10:04;101463.53;;;20.94;100.00
43745;BME280;29359;53.048;8.732;2023-09-12T10:12:31;101465.34;;;20.94;100.00
43745;BME280;29359;53.048;8.732;2023-09-12T10:14:50;101461.59;;;20.96;100.00
43745;BME280;29359;53.048;8.732;2023-09-12T10:16:59;101458.72;;;20.99;100.00
43745;BME280;29359;53.048;8.732;2023-09-12T10:19:16;101463.13;;;21.00;100.00
43745;BME280;29359;53.048;8.732;2023-09-12T10:21:21;101458.16;;;20.94;100.00
43745;BME280;29359;53.048;8.732;2023-09-12T10:23:34;101454.69;;;20.92;100.00
43745;BME280;29359;53.048;8.732;2023-09-12T10:25:40;101454.50;;;20.95;100.00
43745;BME280;29359;53.048;8.732;2023-09-12T10:27:41;101449.81;;;20.99;100.00
43745;BME280;29359;53.048;8.732;2023-09-12T10:29:43;101444.25;;;21.02;100.00
43745;BME280;29359;53.048;8.732;2023-09-12T10:31:49;101443.38;;;21.01;100.00
43745;BME280;29359;53.048;8.732;2023-09-12T10:33:51;101436.19;;;21.02;100.00
43745;BME280;29359;53.048;8.732;2023-09-12T10:35:54;101436.97;;;21.04;100.00
43745;BME280;29359;53.048;8.732;2023-09-12T10:38:00;101433.41;;;21.04;100.00
43745;BME280;29359;53.048;8.732;2023-09-12T10:40:04;101438.03;;;21.01;100.00
43745;BME280;29359;53.048;8.732;2023-09-12T10:42:09;101435.13;;;21.05;100.00
43745;BME280;29359;53.048;8.732;2023-09-12T10:44:18;101423.25;;;21.09;100.00
43745;BME280;29359;53.048;8.732;2023-09-12T10:46:19;101427.56;;;21.11;100.00
43745;BME280;29359;53.048;8.732;2023-09-12T10:48:22;101422.97;;;21.13;100.00
43745;BME280;29359;53.048;8.732;2023-09-12T10:50:24;101418.66;;;21.11;100.00
43745;BME280;29359;53.048;8.732;2023-09-12T10:52:27;101417.69;;;21.12;100.00